sensor_id;sensor_type;location;lat;lon;timestamp;P1;durP1;ratioP1;P2;durP2;ratioP2
22490;SDS011;11412;50.802;4.350;2023-08-17T00:00:10;3.97;;;2.22;;
22490;SDS011;11412;50.802;4.350;2023-08-17T00:02:39;1.95;;;1.85;;
22490;SDS011;11412;50.802;4.350;2023-08-17T00:05:06;1.92;;;1.75;;
22490;SDS011;11412;50.802;4.350;2023-08-17T00:07:32;2.25;;;1.45;;
22490;SDS011;11412;50.802;4.350;2023-08-17T00:09:58;1.88;;;1.77;;
22490;SDS011;11412;50.802;4.350;2023-08-17T00:12:24;2.47;;;1.70;;
22490;SDS011;11412;50.802;4.350;2023-08-17T00:14:50;5.80;;;1.92;;
22490;SDS011;11412;50.802;4.350;2023-08-17T00:17:16;2.55;;;1.65;;
22490;SDS011;11412;50.802;4.350;2023-08-17T00:19:42;1.77;;;1.67;;
22490;SDS011;11412;50.802;4.350;2023-08-17T00:22:08;4.38;;;2.45;;
22490;SDS011;11412;50.802;4.350;2023-08-17T00:24:33;4.05;;;1.85;;
22490;SDS011;11412;50.802;4.350;2023-08-17T00:26:59;1.90;;;1.80;;
22490;SDS011;11412;50.802;4.350;2023-08-17T00:29:25;2.08;;;1.67;;
22490;SDS011;11412;50.802;4.350;2023-08-17T00:31:51;2.13;;;1.70;;
22490;SDS011;11412;50.802;4.350;2023-08-17T00:34:17;1.80;;;1.70;;
22490;SDS011;11412;50.802;4.350;2023-08-17T00:36:43;4.03;;;2.17;;
22490;SDS011;11412;50.802;4.350;2023-08-17T00:39:09;3.47;;;1.85;;
22490;SDS011;11412;50.802;4.350;2023-08-17T00:41:35;2.08;;;1.98;;
22490;SDS011;11412;50.802;4.350;2023-08-17T00:44:01;2.03;;;1.80;;
22490;SDS011;11412;50.802;4.350;2023-08-17T00:46:27;2.20;;;1.67;;
22490;SDS011;11412;50.802;4.350;2023-08-17T00:48:54;2.72;;;2.10;;
22490;SDS011;11412;50.802;4.350;2023-08-17T00:51:24;2.67;;;1.80;;
22490;SDS011;11412;50.802;4.350;2023-08-17T00:53:52;2.00;;;1.90;;
22490;SDS011;11412;50.802;4.350;2023-08-17T00:56:21;2.15;;;1.65;;
22490;SDS011;11412;50.802;4.350;2023-08-17T00:58:47;2.75;;;2.00;;
22490;SDS011;11412;50.802;4.350;2023-08-17T01:01:14;3.58;;;1.92;;
22490;SDS011;11412;50.802;4.350;2023-08-17T01:03:40;2.50;;;1.92;;
22490;SDS011;11412;50.802;4.350;2023-08-17T01:06:06;3.20;;;2.30;;
22490;SDS011;11412;50.802;4.350;2023-08-17T01:08:33;5.63;;;1.90;;
22490;SDS011;11412;50.802;4.350;2023-08-17T01:16:48;4.63;;;2.00;;
22490;SDS011;11412;50.802;4.350;2023-08-17T01:19:26;3.58;;;2.25;;
22490;SDS011;11412;50.802;4.350;2023-08-17T01:22:05;2.03;;;1.85;;
22490;SDS011;11412;50.802;4.350;2023-08-17T01:24:33;4.20;;;2.40;;
22490;SDS011;11412;50.802;4.350;2023-08-17T01:30:21;2.72;;;2.22;;
22490;SDS011;11412;50.802;4.350;2023-08-17T01:32:51;2.95;;;2.72;;
22490;SDS011;11412;50.802;4.350;2023-08-17T01:37:57;5.28;;;2.20;;
22490;SDS011;11412;50.802;4.350;2023-08-17T01:40:26;3.28;;;2.58;;
22490;SDS011;11412;50.802;4.350;2023-08-17T01:42:54;2.38;;;2.17;;
22490;SDS011;11412;50.802;4.350;2023-08-17T01:45:21;6.55;;;2.60;;
22490;SDS011;11412;50.802;4.350;2023-08-17T01:47:48;2.25;;;2.00;;
22490;SDS011;11412;50.802;4.350;2023-08-17T01:50:14;2.88;;;2.10;;
22490;SDS011;11412;50.802;4.350;2023-08-17T01:52:39;2.47;;;2.33;;
22490;SDS011;11412;50.802;4.350;2023-08-17T01:55:05;2.40;;;2.30;;
22490;SDS011;11412;50.802;4.350;2023-08-17T01:57:31;5.80;;;2.40;;
22490;SDS011;11412;50.802;4.350;2023-08-17T01:59:57;3.08;;;2.53;;
22490;SDS011;11412;50.802;4.350;2023-08-17T02:02:22;2.65;;;2.42;;
22490;SDS011;11412;50.802;4.350;2023-08-17T02:04:48;5.85;;;2.50;;
22490;SDS011;11412;50.802;4.350;2023-08-17T02:07:14;3.05;;;2.70;;
22490;SDS011;11412;50.802;4.350;2023-08-17T02:09:40;3.08;;;2.25;;
22490;SDS011;11412;50.802;4.350;2023-08-17T02:12:06;3.03;;;2.80;;
22490;SDS011;11412;50.802;4.350;2023-08-17T02:14:33;5.57;;;2.67;;
22490;SDS011;11412;50.802;4.350;2023-08-17T02:16:59;6.65;;;2.38;;
22490;SDS011;11412;50.802;4.350;2023-08-17T02:19:24;2.97;;;2.33;;
22490;SDS011;11412;50.802;4.350;2023-08-17T02:21:50;4.35;;;2.70;;
22490;SDS011;11412;50.802;4.350;2023-08-17T02:24:16;2.67;;;2.47;;
22490;SDS011;11412;50.802;4.350;2023-08-17T02:26:42;3.22;;;2.50;;
22490;SDS011;11412;50.802;4.350;2023-08-17T02:29:08;5.40;;;2.80;;
22490;SDS011;11412;50.802;4.350;2023-08-17T02:31:33;3.83;;;2.50;;
22490;SDS011;11412;50.802;4.350;2023-08-17T02:33:59;4.50;;;2.70;;
22490;SDS011;11412;50.802;4.350;2023-08-17T02:36:31;2.60;;;2.40;;
22490;SDS011;11412;50.802;4.350;2023-08-17T02:38:57;3.00;;;2.67;;
22490;SDS011;11412;50.802;4.350;2023-08-17T02:41:23;6.90;;;2.50;;
22490;SDS011;11412;50.802;4.350;2023-08-17T02:43:48;3.33;;;2.28;;
22490;SDS011;11412;50.802;4.350;2023-08-17T02:46:14;2.45;;;2.30;;
22490;SDS011;11412;50.802;4.350;2023-08-17T02:48:40;3.10;;;2.67;;
22490;SDS011;11412;50.802;4.350;2023-08-17T02:51:05;9.85;;;3.08;;
22490;SDS011;11412;50.802;4.350;2023-08-17T02:53:31;3.72;;;2.83;;
22490;SDS011;11412;50.802;4.350;2023-08-17T02:55:57;3.10;;;2.33;;
22490;SDS011;11412;50.802;4.350;2023-08-17T02:58:22;5.20;;;2.50;;
22490;SDS011;11412;50.802;4.350;2023-08-17T03:00:50;3.55;;;2.88;;
22490;SDS011;11412;50.802;4.350;2023-08-17T03:03:17;3.10;;;2.63;;
22490;SDS011;11412;50.802;4.350;2023-08-17T03:05:42;5.13;;;2.60;;
22490;SDS011;11412;50.802;4.350;2023-08-17T03:08:08;3.58;;;2.30;;
22490;SDS011;11412;50.802;4.350;2023-08-17T03:10:34;3.05;;;2.10;;
22490;SDS011;11412;50.802;4.350;2023-08-17T03:12:59;4.43;;;2.20;;
22490;SDS011;11412;50.802;4.350;2023-08-17T03:15:25;3.78;;;2.70;;
22490;SDS011;11412;50.802;4.350;2023-08-17T03:17:51;2.35;;;2.25;;
22490;SDS011;11412;50.802;4.350;2023-08-17T03:20:16;2.50;;;2.30;;
22490;SDS011;11412;50.802;4.350;2023-08-17T03:22:42;3.22;;;2.80;;
22490;SDS011;11412;50.802;4.350;2023-08-17T03:25:08;6.97;;;2.45;;
22490;SDS011;11412;50.802;4.350;2023-08-17T03:27:34;4.25;;;2.50;;
22490;SDS011;11412;50.802;4.350;2023-08-17T03:29:59;3.10;;;2.00;;
22490;SDS011;11412;50.802;4.350;2023-08-17T03:32:25;3.95;;;2.40;;
22490;SDS011;11412;50.802;4.350;2023-08-17T03:34:51;2.63;;;2.42;;
22490;SDS011;11412;50.802;4.350;2023-08-17T03:37:16;4.53;;;2.58;;
22490;SDS011;11412;50.802;4.350;2023-08-17T03:39:43;5.10;;;2.30;;
22490;SDS011;11412;50.802;4.350;2023-08-17T03:42:09;6.63;;;3.00;;
22490;SDS011;11412;50.802;4.350;2023-08-17T03:44:34;4.82;;;2.75;;
22490;SDS011;11412;50.802;4.350;2023-08-17T03:47:00;2.75;;;2.38;;
22490;SDS011;11412;50.802;4.350;2023-08-17T03:49:25;2.60;;;2.40;;
22490;SDS011;11412;50.802;4.350;2023-08-17T03:51:51;4.07;;;2.50;;
22490;SDS011;11412;50.802;4.350;2023-08-17T03:54:17;3.72;;;2.45;;
22490;SDS011;11412;50.802;4.350;2023-08-17T03:56:44;4.30;;;2.40;;
22490;SDS011;11412;50.802;4.350;2023-08-17T03:59:10;2.65;;;2.22;;
22490;SDS011;11412;50.802;4.350;2023-08-17T04:01:35;5.00;;;2.28;;
22490;SDS011;11412;50.802;4.350;2023-08-17T04:04:01;4.63;;;2.35;;
22490;SDS011;11412;50.802;4.350;2023-08-17T04:06:27;2.70;;;2.42;;
22490;SDS011;11412;50.802;4.350;2023-08-17T04:08:54;2.50;;;2.30;;
22490;SDS011;11412;50.802;4.350;2023-08-17T04:11:19;3.05;;;2.38;;
22490;SDS011;11412;50.802;4.350;2023-08-17T04:13:45;2.45;;;2.08;;
22490;SDS011;11412;50.802;4.350;2023-08-17T04:16:10;7.20;;;2.83;;
22490;SDS011;11412;50.802;4.350;2023-08-17T04:18:36;5.45;;;1.95;;
22490;SDS011;11412;50.802;4.350;2023-08-17T04:21:02;4.25;;;2.30;;
22490;SDS011;11412;50.802;4.350;2023-08-17T04:23:27;6.68;;;2.40;;
22490;SDS011;11412;50.802;4.350;2023-08-17T04:25:53;2.70;;;2.50;;
22490;SDS011;11412;50.802;4.350;2023-08-17T04:28:20;3.63;;;2.50;;
22490;SDS011;11412;50.802;4.350;2023-08-17T04:30:45;4.63;;;2.40;;
22490;SDS011;11412;50.802;4.350;2023-08-17T04:33:11;4.93;;;2.83;;
22490;SDS011;11412;50.802;4.350;2023-08-17T04:35:38;3.47;;;2.78;;
22490;SDS011;11412;50.802;4.350;2023-08-17T04:38:04;3.75;;;2.22;;
22490;SDS011;11412;50.802;4.350;2023-08-17T04:40:30;4.13;;;2.72;;
22490;SDS011;11412;50.802;4.350;2023-08-17T04:42:56;5.03;;;2.47;;
22490;SDS011;11412;50.802;4.350;2023-08-17T04:45:21;3.13;;;2.13;;
22490;SDS011;11412;50.802;4.350;2023-08-17T04:47:48;4.95;;;2.63;;
22490;SDS011;11412;50.802;4.350;2023-08-17T04:50:14;5.75;;;2.53;;
22490;SDS011;11412;50.802;4.350;2023-08-17T04:52:44;3.45;;;3.10;;
22490;SDS011;11412;50.802;4.350;2023-08-17T04:55:10;4.68;;;2.47;;
22490;SDS011;11412;50.802;4.350;2023-08-17T04:57:36;6.60;;;2.78;;
22490;SDS011;11412;50.802;4.350;2023-08-17T05:00:03;3.63;;;2.40;;
22490;SDS011;11412;50.802;4.350;2023-08-17T05:02:33;6.72;;;3.22;;
22490;SDS011;11412;50.802;4.350;2023-08-17T05:04:59;9.50;;;3.30;;
22490;SDS011;11412;50.802;4.350;2023-08-17T05:07:24;3.40;;;2.72;;
22490;SDS011;11412;50.802;4.350;2023-08-17T05:09:50;3.10;;;2.22;;
22490;SDS011;11412;50.802;4.350;2023-08-17T05:12:16;2.65;;;2.35;;
22490;SDS011;11412;50.802;4.350;2023-08-17T05:14:41;4.63;;;2.75;;
22490;SDS011;11412;50.802;4.350;2023-08-17T05:17:07;3.53;;;2.55;;
22490;SDS011;11412;50.802;4.350;2023-08-17T05:19:33;6.07;;;2.85;;
22490;SDS011;11412;50.802;4.350;2023-08-17T05:21:58;4.88;;;2.60;;
22490;SDS011;11412;50.802;4.350;2023-08-17T05:24:24;4.70;;;2.90;;
22490;SDS011;11412;50.802;4.350;2023-08-17T05:26:50;4.70;;;3.05;;
22490;SDS011;11412;50.802;4.350;2023-08-17T05:29:15;5.15;;;2.90;;
22490;SDS011;11412;50.802;4.350;2023-08-17T05:31:41;4.07;;;2.90;;
22490;SDS011;11412;50.802;4.350;2023-08-17T05:34:07;3.70;;;2.63;;
22490;SDS011;11412;50.802;4.350;2023-08-17T05:36:33;5.20;;;3.05;;
22490;SDS011;11412;50.802;4.350;2023-08-17T05:38:58;5.38;;;3.00;;
22490;SDS011;11412;50.802;4.350;2023-08-17T05:41:24;2.92;;;2.63;;
22490;SDS011;11412;50.802;4.350;2023-08-17T05:43:50;4.70;;;2.72;;
22490;SDS011;11412;50.802;4.350;2023-08-17T05:46:15;6.15;;;2.85;;
22490;SDS011;11412;50.802;4.350;2023-08-17T05:48:41;2.83;;;2.55;;
22490;SDS011;11412;50.802;4.350;2023-08-17T05:51:07;3.30;;;2.92;;
22490;SDS011;11412;50.802;4.350;2023-08-17T05:53:32;4.03;;;2.63;;
22490;SDS011;11412;50.802;4.350;2023-08-17T05:55:58;5.18;;;2.70;;
22490;SDS011;11412;50.802;4.350;2023-08-17T05:58:24;4.53;;;3.08;;
22490;SDS011;11412;50.802;4.350;2023-08-17T06:00:50;6.75;;;2.63;;
22490;SDS011;11412;50.802;4.350;2023-08-17T06:03:16;5.05;;;2.55;;
22490;SDS011;11412;50.802;4.350;2023-08-17T06:05:42;5.20;;;2.90;;
22490;SDS011;11412;50.802;4.350;2023-08-17T06:08:08;3.97;;;2.75;;
22490;SDS011;11412;50.802;4.350;2023-08-17T06:10:33;5.85;;;3.03;;
22490;SDS011;11412;50.802;4.350;2023-08-17T06:13:00;8.10;;;3.05;;
22490;SDS011;11412;50.802;4.350;2023-08-17T06:15:25;3.88;;;2.80;;
22490;SDS011;11412;50.802;4.350;2023-08-17T06:17:51;4.10;;;3.00;;
22490;SDS011;11412;50.802;4.350;2023-08-17T06:20:17;3.25;;;2.72;;
22490;SDS011;11412;50.802;4.350;2023-08-17T06:22:43;4.50;;;2.90;;
22490;SDS011;11412;50.802;4.350;2023-08-17T06:25:09;3.72;;;3.00;;
22490;SDS011;11412;50.802;4.350;2023-08-17T06:27:36;4.97;;;3.40;;
22490;SDS011;11412;50.802;4.350;2023-08-17T06:30:04;6.47;;;3.05;;
22490;SDS011;11412;50.802;4.350;2023-08-17T06:32:30;6.50;;;3.10;;
22490;SDS011;11412;50.802;4.350;2023-08-17T06:34:56;5.10;;;3.33;;
22490;SDS011;11412;50.802;4.350;2023-08-17T06:37:22;4.20;;;3.00;;
22490;SDS011;11412;50.802;4.350;2023-08-17T06:39:48;4.65;;;3.40;;
22490;SDS011;11412;50.802;4.350;2023-08-17T06:42:13;9.20;;;3.63;;
22490;SDS011;11412;50.802;4.350;2023-08-17T06:44:39;4.50;;;3.17;;
22490;SDS011;11412;50.802;4.350;2023-08-17T06:47:05;6.78;;;3.67;;
22490;SDS011;11412;50.802;4.350;2023-08-17T06:49:30;10.95;;;3.30;;
22490;SDS011;11412;50.802;4.350;2023-08-17T06:51:56;6.60;;;3.35;;
22490;SDS011;11412;50.802;4.350;2023-08-17T06:54:22;6.82;;;3.45;;
22490;SDS011;11412;50.802;4.350;2023-08-17T06:56:47;6.85;;;3.63;;
22490;SDS011;11412;50.802;4.350;2023-08-17T06:59:13;6.25;;;3.65;;
22490;SDS011;11412;50.802;4.350;2023-08-17T07:01:39;5.28;;;3.50;;
22490;SDS011;11412;50.802;4.350;2023-08-17T07:04:04;5.38;;;3.60;;
22490;SDS011;11412;50.802;4.350;2023-08-17T07:06:30;7.38;;;4.07;;
22490;SDS011;11412;50.802;4.350;2023-08-17T07:08:56;7.82;;;4.13;;
22490;SDS011;11412;50.802;4.350;2023-08-17T07:11:22;5.78;;;4.13;;
22490;SDS011;11412;50.802;4.350;2023-08-17T07:13:47;7.55;;;3.67;;
22490;SDS011;11412;50.802;4.350;2023-08-17T07:16:13;5.32;;;3.83;;
22490;SDS011;11412;50.802;4.350;2023-08-17T07:18:39;4.32;;;3.67;;
22490;SDS011;11412;50.802;4.350;2023-08-17T07:21:05;6.32;;;3.83;;
22490;SDS011;11412;50.802;4.350;2023-08-17T07:23:31;8.00;;;4.75;;
22490;SDS011;11412;50.802;4.350;2023-08-17T07:25:56;6.38;;;4.53;;
22490;SDS011;11412;50.802;4.350;2023-08-17T07:28:22;12.32;;;4.95;;
22490;SDS011;11412;50.802;4.350;2023-08-17T07:30:48;6.70;;;4.05;;
22490;SDS011;11412;50.802;4.350;2023-08-17T07:33:14;5.65;;;4.60;;
22490;SDS011;11412;50.802;4.350;2023-08-17T07:35:39;10.90;;;5.30;;
22490;SDS011;11412;50.802;4.350;2023-08-17T07:38:05;7.93;;;4.90;;
22490;SDS011;11412;50.802;4.350;2023-08-17T07:40:31;10.13;;;5.75;;
22490;SDS011;11412;50.802;4.350;2023-08-17T07:42:56;8.65;;;5.38;;
22490;SDS011;11412;50.802;4.350;2023-08-17T07:45:22;12.98;;;5.47;;
22490;SDS011;11412;50.802;4.350;2023-08-17T07:47:47;14.25;;;5.90;;
22490;SDS011;11412;50.802;4.350;2023-08-17T07:50:13;9.52;;;5.65;;
22490;SDS011;11412;50.802;4.350;2023-08-17T07:52:39;11.95;;;5.43;;
22490;SDS011;11412;50.802;4.350;2023-08-17T07:55:04;6.30;;;5.60;;
22490;SDS011;11412;50.802;4.350;2023-08-17T07:57:33;10.50;;;5.70;;
22490;SDS011;11412;50.802;4.350;2023-08-17T07:59:59;8.75;;;5.75;;
22490;SDS011;11412;50.802;4.350;2023-08-17T08:02:25;12.73;;;6.10;;
22490;SDS011;11412;50.802;4.350;2023-08-17T08:04:50;11.85;;;5.15;;
22490;SDS011;11412;50.802;4.350;2023-08-17T08:07:16;8.85;;;5.32;;
22490;SDS011;11412;50.802;4.350;2023-08-17T08:09:41;10.07;;;6.53;;
22490;SDS011;11412;50.802;4.350;2023-08-17T08:12:07;10.50;;;6.28;;
22490;SDS011;11412;50.802;4.350;2023-08-17T08:14:33;8.88;;;5.30;;
22490;SDS011;11412;50.802;4.350;2023-08-17T08:17:00;11.13;;;6.47;;
22490;SDS011;11412;50.802;4.350;2023-08-17T08:19:25;9.73;;;6.35;;
22490;SDS011;11412;50.802;4.350;2023-08-17T08:21:51;10.82;;;5.95;;
22490;SDS011;11412;50.802;4.350;2023-08-17T08:24:17;11.38;;;6.18;;
22490;SDS011;11412;50.802;4.350;2023-08-17T08:26:42;9.98;;;5.70;;
22490;SDS011;11412;50.802;4.350;2023-08-17T08:29:08;10.35;;;6.22;;
22490;SDS011;11412;50.802;4.350;2023-08-17T08:31:34;10.20;;;6.85;;
22490;SDS011;11412;50.802;4.350;2023-08-17T08:34:00;8.38;;;5.90;;
22490;SDS011;11412;50.802;4.350;2023-08-17T08:36:25;11.13;;;6.32;;
22490;SDS011;11412;50.802;4.350;2023-08-17T08:38:51;7.93;;;5.82;;
22490;SDS011;11412;50.802;4.350;2023-08-17T08:41:16;12.98;;;7.57;;
22490;SDS011;11412;50.802;4.350;2023-08-17T08:43:42;10.60;;;6.68;;
22490;SDS011;11412;50.802;4.350;2023-08-17T08:46:08;11.38;;;6.05;;
22490;SDS011;11412;50.802;4.350;2023-08-17T08:48:34;12.38;;;6.13;;
22490;SDS011;11412;50.802;4.350;2023-08-17T08:51:03;8.70;;;6.50;;
22490;SDS011;11412;50.802;4.350;2023-08-17T08:53:39;10.23;;;6.38;;
22490;SDS011;11412;50.802;4.350;2023-08-17T08:56:13;14.50;;;8.02;;
22490;SDS011;11412;50.802;4.350;2023-08-17T08:58:43;13.77;;;7.00;;
22490;SDS011;11412;50.802;4.350;2023-08-17T09:01:11;11.07;;;7.57;;
22490;SDS011;11412;50.802;4.350;2023-08-17T09:03:38;13.00;;;7.00;;
22490;SDS011;11412;50.802;4.350;2023-08-17T09:06:03;12.52;;;7.25;;
22490;SDS011;11412;50.802;4.350;2023-08-17T09:08:30;13.25;;;6.75;;
22490;SDS011;11412;50.802;4.350;2023-08-17T09:10:56;11.25;;;8.32;;
22490;SDS011;11412;50.802;4.350;2023-08-17T09:13:22;10.52;;;6.78;;
22490;SDS011;11412;50.802;4.350;2023-08-17T09:15:48;12.85;;;7.25;;
22490;SDS011;11412;50.802;4.350;2023-08-17T09:18:14;16.63;;;7.88;;
22490;SDS011;11412;50.802;4.350;2023-08-17T09:20:42;10.73;;;6.85;;
22490;SDS011;11412;50.802;4.350;2023-08-17T09:23:13;11.57;;;7.70;;
22490;SDS011;11412;50.802;4.350;2023-08-17T09:25:43;10.10;;;7.15;;
22490;SDS011;11412;50.802;4.350;2023-08-17T09:30:58;8.73;;;6.72;;
22490;SDS011;11412;50.802;4.350;2023-08-17T09:33:26;7.80;;;7.00;;
22490;SDS011;11412;50.802;4.350;2023-08-17T09:35:54;11.40;;;6.68;;
22490;SDS011;11412;50.802;4.350;2023-08-17T09:38:20;13.18;;;6.13;;
22490;SDS011;11412;50.802;4.350;2023-08-17T09:40:49;11.10;;;6.45;;
22490;SDS011;11412;50.802;4.350;2023-08-17T09:43:15;9.13;;;6.57;;
22490;SDS011;11412;50.802;4.350;2023-08-17T09:45:45;10.65;;;6.80;;
22490;SDS011;11412;50.802;4.350;2023-08-17T09:48:14;9.50;;;6.88;;
22490;SDS011;11412;50.802;4.350;2023-08-17T09:50:44;12.02;;;7.70;;
22490;SDS011;11412;50.802;4.350;2023-08-17T09:53:14;10.55;;;7.32;;
22490;SDS011;11412;50.802;4.350;2023-08-17T09:55:44;14.45;;;7.95;;
22490;SDS011;11412;50.802;4.350;2023-08-17T09:58:10;11.32;;;8.15;;
22490;SDS011;11412;50.802;4.350;2023-08-17T10:00:43;10.35;;;7.38;;
22490;SDS011;11412;50.802;4.350;2023-08-17T10:03:11;11.40;;;7.55;;
22490;SDS011;11412;50.802;4.350;2023-08-17T10:05:39;13.15;;;8.43;;
22490;SDS011;11412;50.802;4.350;2023-08-17T10:08:06;13.77;;;8.60;;
22490;SDS011;11412;50.802;4.350;2023-08-17T10:10:34;10.57;;;8.35;;
22490;SDS011;11412;50.802;4.350;2023-08-17T10:13:09;8.75;;;7.88;;
22490;SDS011;11412;50.802;4.350;2023-08-17T10:16:02;9.05;;;7.70;;
22490;SDS011;11412;50.802;4.350;2023-08-17T10:18:38;11.75;;;9.65;;
22490;SDS011;11412;50.802;4.350;2023-08-17T10:21:18;12.95;;;8.68;;
22490;SDS011;11412;50.802;4.350;2023-08-17T10:23:53;11.25;;;8.02;;
22490;SDS011;11412;50.802;4.350;2023-08-17T10:26:20;14.32;;;8.98;;
22490;SDS011;11412;50.802;4.350;2023-08-17T10:28:46;11.63;;;8.75;;
22490;SDS011;11412;50.802;4.350;2023-08-17T10:31:13;12.30;;;8.98;;
22490;SDS011;11412;50.802;4.350;2023-08-17T10:33:39;15.05;;;8.02;;
22490;SDS011;11412;50.802;4.350;2023-08-17T10:36:09;13.30;;;8.88;;
22490;SDS011;11412;50.802;4.350;2023-08-17T10:38:36;12.95;;;9.23;;
22490;SDS011;11412;50.802;4.350;2023-08-17T10:41:11;11.32;;;8.48;;
22490;SDS011;11412;50.802;4.350;2023-08-17T10:43:53;16.10;;;9.00;;
22490;SDS011;11412;50.802;4.350;2023-08-17T10:46:32;12.82;;;9.23;;
22490;SDS011;11412;50.802;4.350;2023-08-17T10:49:05;15.27;;;9.10;;
22490;SDS011;11412;50.802;4.350;2023-08-17T10:52:24;11.07;;;7.95;;
22490;SDS011;11412;50.802;4.350;2023-08-17T10:54:49;14.70;;;9.32;;
22490;SDS011;11412;50.802;4.350;2023-08-17T10:57:24;13.93;;;9.63;;
22490;SDS011;11412;50.802;4.350;2023-08-17T11:02:57;10.52;;;8.25;;
22490;SDS011;11412;50.802;4.350;2023-08-17T11:05:34;11.48;;;9.00;;
22490;SDS011;11412;50.802;4.350;2023-08-17T11:08:04;11.80;;;8.27;;
22490;SDS011;11412;50.802;4.350;2023-08-17T11:10:30;10.43;;;8.40;;
22490;SDS011;11412;50.802;4.350;2023-08-17T11:12:56;12.32;;;8.73;;
22490;SDS011;11412;50.802;4.350;2023-08-17T11:15:30;14.20;;;9.40;;
22490;SDS011;11412;50.802;4.350;2023-08-17T11:18:07;12.30;;;9.10;;
22490;SDS011;11412;50.802;4.350;2023-08-17T11:20:35;18.77;;;10.55;;
22490;SDS011;11412;50.802;4.350;2023-08-17T11:23:03;20.65;;;11.13;;
22490;SDS011;11412;50.802;4.350;2023-08-17T11:25:31;15.43;;;9.40;;
22490;SDS011;11412;50.802;4.350;2023-08-17T11:27:57;12.20;;;9.63;;
22490;SDS011;11412;50.802;4.350;2023-08-17T11:30:25;15.18;;;10.00;;
22490;SDS011;11412;50.802;4.350;2023-08-17T11:32:53;14.25;;;10.32;;
22490;SDS011;11412;50.802;4.350;2023-08-17T11:35:20;17.90;;;11.05;;
22490;SDS011;11412;50.802;4.350;2023-08-17T11:37:46;17.88;;;11.45;;
22490;SDS011;11412;50.802;4.350;2023-08-17T11:40:16;13.90;;;10.90;;
22490;SDS011;11412;50.802;4.350;2023-08-17T11:42:42;13.00;;;10.73;;
22490;SDS011;11412;50.802;4.350;2023-08-17T11:45:08;16.35;;;10.95;;
22490;SDS011;11412;50.802;4.350;2023-08-17T11:47:35;13.55;;;9.60;;
22490;SDS011;11412;50.802;4.350;2023-08-17T11:50:01;14.13;;;9.43;;
22490;SDS011;11412;50.802;4.350;2023-08-17T11:52:28;11.85;;;9.25;;
22490;SDS011;11412;50.802;4.350;2023-08-17T11:54:55;13.32;;;9.63;;
22490;SDS011;11412;50.802;4.350;2023-08-17T11:57:25;10.05;;;8.63;;
22490;SDS011;11412;50.802;4.350;2023-08-17T11:59:57;10.80;;;8.65;;
22490;SDS011;11412;50.802;4.350;2023-08-17T12:02:24;9.07;;;7.07;;
22490;SDS011;11412;50.802;4.350;2023-08-17T12:04:51;10.73;;;8.48;;
22490;SDS011;11412;50.802;4.350;2023-08-17T12:07:17;9.27;;;6.97;;
22490;SDS011;11412;50.802;4.350;2023-08-17T12:09:44;9.00;;;7.63;;
22490;SDS011;11412;50.802;4.350;2023-08-17T12:12:11;8.82;;;7.95;;
22490;SDS011;11412;50.802;4.350;2023-08-17T12:14:40;7.82;;;6.95;;
22490;SDS011;11412;50.802;4.350;2023-08-17T12:17:10;11.85;;;7.60;;
22490;SDS011;11412;50.802;4.350;2023-08-17T12:22:08;10.73;;;7.97;;
22490;SDS011;11412;50.802;4.350;2023-08-17T12:24:34;11.65;;;7.63;;
22490;SDS011;11412;50.802;4.350;2023-08-17T12:27:03;9.73;;;7.03;;
22490;SDS011;11412;50.802;4.350;2023-08-17T12:29:29;14.88;;;7.47;;
22490;SDS011;11412;50.802;4.350;2023-08-17T12:31:58;8.27;;;6.95;;
22490;SDS011;11412;50.802;4.350;2023-08-17T12:34:26;11.65;;;7.63;;
22490;SDS011;11412;50.802;4.350;2023-08-17T12:36:52;8.00;;;7.30;;
22490;SDS011;11412;50.802;4.350;2023-08-17T12:39:17;10.02;;;7.50;;
22490;SDS011;11412;50.802;4.350;2023-08-17T12:41:44;10.57;;;7.47;;
22490;SDS011;11412;50.802;4.350;2023-08-17T12:44:09;11.05;;;8.68;;
22490;SDS011;11412;50.802;4.350;2023-08-17T12:46:39;10.80;;;8.65;;
22490;SDS011;11412;50.802;4.350;2023-08-17T12:49:05;9.05;;;7.97;;
22490;SDS011;11412;50.802;4.350;2023-08-17T12:51:31;11.98;;;8.77;;
22490;SDS011;11412;50.802;4.350;2023-08-17T12:53:56;13.10;;;8.55;;
22490;SDS011;11412;50.802;4.350;2023-08-17T12:56:22;13.88;;;8.07;;
22490;SDS011;11412;50.802;4.350;2023-08-17T12:58:48;8.05;;;7.25;;
22490;SDS011;11412;50.802;4.350;2023-08-17T13:01:13;9.57;;;8.65;;
22490;SDS011;11412;50.802;4.350;2023-08-17T13:03:39;9.40;;;8.50;;
22490;SDS011;11412;50.802;4.350;2023-08-17T13:06:05;9.70;;;8.77;;
22490;SDS011;11412;50.802;4.350;2023-08-17T13:08:32;11.85;;;8.63;;
22490;SDS011;11412;50.802;4.350;2023-08-17T13:10:58;9.70;;;8.68;;
22490;SDS011;11412;50.802;4.350;2023-08-17T13:13:25;9.35;;;8.38;;
22490;SDS011;11412;50.802;4.350;2023-08-17T13:15:50;10.25;;;8.52;;
22490;SDS011;11412;50.802;4.350;2023-08-17T13:18:16;10.63;;;9.40;;
22490;SDS011;11412;50.802;4.350;2023-08-17T13:20:42;10.68;;;9.18;;
22490;SDS011;11412;50.802;4.350;2023-08-17T13:23:08;12.20;;;9.95;;
22490;SDS011;11412;50.802;4.350;2023-08-17T13:25:34;13.07;;;9.52;;
22490;SDS011;11412;50.802;4.350;2023-08-17T13:28:00;9.90;;;8.43;;
22490;SDS011;11412;50.802;4.350;2023-08-17T13:30:26;13.35;;;11.05;;
22490;SDS011;11412;50.802;4.350;2023-08-17T13:32:51;14.13;;;9.07;;
22490;SDS011;11412;50.802;4.350;2023-08-17T13:35:17;14.05;;;9.75;;
22490;SDS011;11412;50.802;4.350;2023-08-17T13:37:43;12.35;;;8.93;;
22490;SDS011;11412;50.802;4.350;2023-08-17T13:40:08;13.02;;;10.35;;
22490;SDS011;11412;50.802;4.350;2023-08-17T13:42:35;13.30;;;10.88;;
22490;SDS011;11412;50.802;4.350;2023-08-17T13:45:02;13.25;;;10.15;;
22490;SDS011;11412;50.802;4.350;2023-08-17T13:47:28;11.93;;;10.65;;
22490;SDS011;11412;50.802;4.350;2023-08-17T13:49:54;14.90;;;10.77;;
22490;SDS011;11412;50.802;4.350;2023-08-17T13:52:21;15.07;;;10.60;;
22490;SDS011;11412;50.802;4.350;2023-08-17T13:54:47;12.05;;;10.23;;
22490;SDS011;11412;50.802;4.350;2023-08-17T13:57:13;15.85;;;10.40;;
22490;SDS011;11412;50.802;4.350;2023-08-17T13:59:39;14.82;;;11.65;;
22490;SDS011;11412;50.802;4.350;2023-08-17T14:02:04;19.25;;;12.55;;
22490;SDS011;11412;50.802;4.350;2023-08-17T14:04:31;21.75;;;13.98;;
22490;SDS011;11412;50.802;4.350;2023-08-17T14:06:56;16.30;;;12.80;;
22490;SDS011;11412;50.802;4.350;2023-08-17T14:09:22;21.10;;;12.40;;
22490;SDS011;11412;50.802;4.350;2023-08-17T14:11:47;15.07;;;13.13;;
22490;SDS011;11412;50.802;4.350;2023-08-17T14:14:13;14.10;;;10.80;;
22490;SDS011;11412;50.802;4.350;2023-08-17T14:16:39;19.08;;;12.88;;
22490;SDS011;11412;50.802;4.350;2023-08-17T14:19:04;17.25;;;12.88;;
22490;SDS011;11412;50.802;4.350;2023-08-17T14:21:30;14.63;;;12.02;;
22490;SDS011;11412;50.802;4.350;2023-08-17T14:23:56;18.95;;;12.68;;
22490;SDS011;11412;50.802;4.350;2023-08-17T14:26:21;16.83;;;13.45;;
22490;SDS011;11412;50.802;4.350;2023-08-17T14:28:47;17.80;;;13.88;;
22490;SDS011;11412;50.802;4.350;2023-08-17T14:31:12;17.63;;;11.93;;
22490;SDS011;11412;50.802;4.350;2023-08-17T14:33:42;14.00;;;11.63;;
22490;SDS011;11412;50.802;4.350;2023-08-17T14:36:09;15.10;;;11.00;;
22490;SDS011;11412;50.802;4.350;2023-08-17T14:38:35;13.27;;;11.38;;
22490;SDS011;11412;50.802;4.350;2023-08-17T14:41:01;14.90;;;11.90;;
22490;SDS011;11412;50.802;4.350;2023-08-17T14:43:29;17.23;;;11.93;;
22490;SDS011;11412;50.802;4.350;2023-08-17T14:45:55;15.50;;;12.65;;
22490;SDS011;11412;50.802;4.350;2023-08-17T14:48:21;18.05;;;12.50;;
22490;SDS011;11412;50.802;4.350;2023-08-17T14:50:46;15.88;;;11.45;;
22490;SDS011;11412;50.802;4.350;2023-08-17T14:53:12;13.40;;;11.93;;
22490;SDS011;11412;50.802;4.350;2023-08-17T14:55:38;12.00;;;10.70;;
22490;SDS011;11412;50.802;4.350;2023-08-17T14:58:03;13.82;;;11.68;;